Time;durP1;ratioP1;P1;durP2;ratioP2;P2;SDS_P1;SDS_P2;PMS_P1;PMS_P2;Temp;Humidity;BMP_temperature;BMP_pressure;BME280_temperature;BME280_humidity;BME280_pressure;Samples;Min_cycle;Max_cycle;Signal;HPM_P1;HPM_P2
2022/07/30 00:02:23;;;;;;;6.85;3.88;;;18.20;72.10;;;;;;5002989;28;20079;-67
2022/07/30 00:04:49;;;;;;;5.85;3.45;;;18.20;72.30;;;;;;5002117;28;20070;-68
2022/07/30 00:07:14;;;;;;;6.22;4.10;;;18.20;72.30;;;;;;5004484;28;20029;-67
2022/07/30 00:09:40;;;;;;;5.80;4.13;;;18.10;72.60;;;;;;5003035;28;20080;-67
2022/07/30 00:12:07;;;;;;;5.15;3.85;;;18.10;72.70;;;;;;5002354;28;20029;-67
2022/07/30 00:14:33;;;;;;;6.50;3.95;;;18.10;72.70;;;;;;5002595;28;20034;-67
2022/07/30 00:17:00;;;;;;;6.22;3.97;;;18.10;72.90;;;;;;5003125;28;20508;-68
2022/07/30 00:19:25;;;;;;;4.75;3.67;;;18.10;72.90;;;;;;5007544;28;20095;-68
2022/07/30 00:21:51;;;;;;;7.60;4.30;;;18.10;73.10;;;;;;5007958;28;20540;-68
2022/07/30 00:24:16;;;;;;;7.47;4.20;;;18.10;73.40;;;;;;5009647;28;20042;-68
2022/07/30 00:26:42;;;;;;;6.43;3.85;;;18.10;73.50;;;;;;5009677;28;20057;-66
2022/07/30 00:29:07;;;;;;;7.32;3.75;;;18.10;73.60;;;;;;5009846;28;20022;-66
2022/07/30 00:31:33;;;;;;;6.65;3.70;;;18.00;73.70;;;;;;5009388;28;20034;-66
2022/07/30 00:33:58;;;;;;;4.38;3.20;;;18.10;74.00;;;;;;5009199;28;20022;-66
2022/07/30 00:36:24;;;;;;;6.60;3.63;;;18.00;74.00;;;;;;5004961;28;20033;-66
2022/07/30 00:38:50;;;;;;;7.72;4.35;;;18.00;74.00;;;;;;5009342;28;20041;-66
2022/07/30 00:41:16;;;;;;;7.18;4.10;;;18.10;74.40;;;;;;5006782;28;20030;-66
2022/07/30 00:43:42;;;;;;;6.65;4.30;;;18.00;74.50;;;;;;5008697;28;20084;-66
2022/07/30 00:46:07;;;;;;;7.80;4.10;;;18.00;74.70;;;;;;5008219;28;20273;-65
2022/07/30 00:48:33;;;;;;;6.75;4.18;;;18.00;75.00;;;;;;5009212;28;20109;-66
2022/07/30 00:50:58;;;;;;;7.55;4.07;;;18.10;75.00;;;;;;5005348;28;20026;-66
2022/07/30 00:53:24;;;;;;;6.93;4.47;;;18.10;75.20;;;;;;5009408;28;20093;-66
2022/07/30 00:55:49;;;;;;;8.40;4.97;;;18.00;75.30;;;;;;5012983;28;20072;-66
2022/07/30 00:58:15;;;;;;;7.60;4.78;;;18.00;75.50;;;;;;5013625;28;20054;-65
2022/07/30 01:00:40;;;;;;;7.05;4.35;;;18.00;75.60;;;;;;5012724;28;20057;-66
2022/07/30 01:03:06;;;;;;;7.00;4.13;;;18.00;75.80;;;;;;5013034;28;20479;-66
2022/07/30 01:05:32;;;;;;;5.35;4.00;;;18.00;76.00;;;;;;5011018;28;20030;-66
2022/07/30 01:07:57;;;;;;;6.03;4.53;;;17.90;76.20;;;;;;5013247;28;20022;-66
2022/07/30 01:10:23;;;;;;;5.13;3.78;;;17.90;76.30;;;;;;5008481;28;20044;-65
2022/07/30 01:12:51;;;;;;;7.72;4.00;;;18.00;76.40;;;;;;5006646;28;20057;-66
2022/07/30 01:15:17;;;;;;;6.50;4.60;;;18.00;76.90;;;;;;5010306;28;20022;-65
2022/07/30 01:17:45;;;;;;;8.43;4.57;;;18.00;76.60;;;;;;5013132;28;20054;-66
2022/07/30 01:20:16;;;;;;;5.97;4.03;;;18.00;76.70;;;;;;5011931;28;20034;-67
2022/07/30 01:23:07;;;;;;;7.97;4.70;;;18.00;76.90;;;;;;5012437;28;20034;-66
2022/07/30 01:26:04;;;;;;;5.60;3.80;;;17.90;77.10;;;;;;5005038;28;20046;-66
2022/07/30 01:28:34;;;;;;;6.88;3.95;;;18.00;77.10;;;;;;5010333;28;20261;-66
2022/07/30 01:31:01;;;;;;;7.20;4.60;;;18.00;77.00;;;;;;5012021;28;20026;-66
2022/07/30 01:33:29;;;;;;;7.47;4.38;;;18.00;77.00;;;;;;5012827;28;20028;-66
2022/07/30 01:35:57;;;;;;;7.43;4.47;;;18.00;77.00;;;;;;5011707;28;20014;-66
2022/07/30 01:38:25;;;;;;;5.32;3.80;;;18.00;77.00;;;;;;5013033;28;20026;-66
2022/07/30 01:40:52;;;;;;;5.72;4.05;;;18.00;77.00;;;;;;5000918;28;20026;-66
2022/07/30 01:43:20;;;;;;;7.68;4.63;;;18.00;76.90;;;;;;5009055;28;20022;-67
2022/07/30 01:45:47;;;;;;;6.10;4.18;;;18.10;77.00;;;;;;5011655;28;20156;-67
2022/07/30 01:48:15;;;;;;;5.38;4.55;;;18.10;77.00;;;;;;5010588;28;20053;-67
2022/07/30 01:50:44;;;;;;;6.07;4.30;;;18.10;77.00;;;;;;5009866;28;20025;-66
2022/07/30 01:53:15;;;;;;;6.60;4.50;;;18.10;76.90;;;;;;5008703;28;20089;-66
2022/07/30 01:55:42;;;;;;;6.28;4.50;;;18.10;77.00;;;;;;5012710;28;20623;-67
2022/07/30 01:58:11;;;;;;;6.95;5.18;;;18.10;77.00;;;;;;5012067;28;20080;-67
2022/07/30 02:00:39;;;;;;;5.70;4.32;;;18.00;77.20;;;;;;5011764;28;20105;-66
2022/07/30 02:03:07;;;;;;;8.45;4.97;;;18.10;77.20;;;;;;5012434;28;20119;-67
2022/07/30 02:05:34;;;;;;;6.55;4.45;;;18.10;77.20;;;;;;5011661;28;20109;-66
2022/07/30 02:08:02;;;;;;;6.47;4.88;;;18.10;77.20;;;;;;5006283;28;20033;-65
2022/07/30 02:10:40;;;;;;;6.40;4.68;;;18.10;77.30;;;;;;5011032;28;20026;-65
2022/07/30 02:13:07;;;;;;;6.75;4.93;;;18.00;77.40;;;;;;5009679;28;20162;-66
2022/07/30 02:15:51;;;;;;;6.78;4.70;;;18.10;77.60;;;;;;5012719;28;20072;-66
2022/07/30 02:18:37;;;;;;;6.43;4.38;;;18.10;77.60;;;;;;5007031;28;20033;-66
2022/07/30 02:21:06;;;;;;;6.88;4.30;;;18.10;77.60;;;;;;5005787;28;20022;-67
2022/07/30 02:23:40;;;;;;;6.32;4.78;;;18.10;77.60;;;;;;5011260;28;20030;-66
2022/07/30 02:26:07;;;;;;;6.68;4.47;;;18.10;77.70;;;;;;4994354;28;20030;-65
2022/07/30 02:28:38;;;;;;;9.20;4.40;;;18.10;77.60;;;;;;5011101;28;20030;-66
2022/07/30 02:31:06;;;;;;;7.05;4.75;;;18.10;77.50;;;;;;5011404;28;20018;-66
2022/07/30 02:33:37;;;;;;;7.80;4.55;;;18.10;77.50;;;;;;5010468;28;20465;-66
2022/07/30 02:36:04;;;;;;;6.60;4.32;;;18.10;77.60;;;;;;5004405;28;20068;-65
2022/07/30 02:38:31;;;;;;;16.50;4.50;;;18.10;77.70;;;;;;5011637;28;20109;-66
2022/07/30 02:41:00;;;;;;;12.90;4.32;;;18.10;77.80;;;;;;5011289;28;20037;-66
2022/07/30 02:43:28;;;;;;;25.05;5.00;;;18.00;78.00;;;;;;5009959;28;20101;-67
2022/07/30 02:45:55;;;;;;;5.75;3.65;;;18.00;78.20;;;;;;5007534;28;20038;-66
2022/07/30 02:48:22;;;;;;;9.73;3.90;;;18.00;78.30;;;;;;5009971;28;20041;-66
2022/07/30 02:50:52;;;;;;;4.85;3.70;;;18.00;78.40;;;;;;5011546;28;20022;-66
2022/07/30 02:53:19;;;;;;;9.77;4.35;;;18.00;78.40;;;;;;5008980;28;20411;-66
2022/07/30 02:55:46;;;;;;;10.70;4.10;;;18.00;78.50;;;;;;5010815;28;20033;-67
2022/07/30 02:58:17;;;;;;;10.43;4.40;;;18.00;78.60;;;;;;5009851;28;20029;-66
2022/07/30 03:00:43;;;;;;;14.88;5.07;;;18.00;78.60;;;;;;5011126;28;20439;-66
2022/07/30 03:03:11;;;;;;;9.20;4.00;;;18.00;78.70;;;;;;5004905;28;20105;-66
2022/07/30 03:05:38;;;;;;;14.00;5.20;;;17.90;79.00;;;;;;5011545;28;20156;-66
2022/07/30 03:08:04;;;;;;;9.85;4.25;;;17.80;79.20;;;;;;5010251;28;20377;-66
2022/07/30 03:10:31;;;;;;;9.02;4.30;;;17.80;79.40;;;;;;5008775;28;20543;-66
2022/07/30 03:12:58;;;;;;;12.55;3.90;;;17.80;79.50;;;;;;5008151;28;20432;-66
2022/07/30 03:15:25;;;;;;;11.88;4.32;;;17.80;79.50;;;;;;5011667;28;20076;-66
2022/07/30 03:17:52;;;;;;;8.43;3.70;;;17.80;79.60;;;;;;5009334;28;20109;-66
2022/07/30 03:20:24;;;;;;;6.43;3.83;;;17.80;79.50;;;;;;5005704;28;20034;-67
2022/07/30 03:22:51;;;;;;;6.93;4.82;;;17.80;79.50;;;;;;5008623;28;20473;-67
2022/07/30 03:25:22;;;;;;;9.32;4.65;;;17.80;79.60;;;;;;5011454;28;20064;-67
2022/07/30 03:27:48;;;;;;;27.55;6.00;;;17.80;79.70;;;;;;5009937;28;20114;-67
2022/07/30 03:30:14;;;;;;;6.63;5.50;;;17.70;80.00;;;;;;5010738;28;20026;-67
2022/07/30 03:32:41;;;;;;;7.53;5.00;;;17.70;80.10;;;;;;5006566;28;20518;-66
2022/07/30 03:35:08;;;;;;;6.88;5.10;;;17.70;80.30;;;;;;5008567;28;20025;-65
2022/07/30 03:37:36;;;;;;;10.88;4.97;;;17.70;80.40;;;;;;5011093;28;20064;-66
2022/07/30 03:40:02;;;;;;;6.63;5.55;;;17.70;80.50;;;;;;5010561;28;20679;-67
2022/07/30 03:42:30;;;;;;;8.05;5.30;;;17.60;80.70;;;;;;5009732;28;20109;-66
2022/07/30 03:44:56;;;;;;;9.30;5.43;;;17.70;80.80;;;;;;5009819;28;20029;-66
2022/07/30 03:47:23;;;;;;;8.50;5.45;;;17.60;80.90;;;;;;5010808;28;20068;-67
2022/07/30 03:49:48;;;;;;;7.50;4.53;;;17.60;81.30;;;;;;5008507;28;20033;-67
2022/07/30 03:52:15;;;;;;;7.30;5.50;;;17.60;81.40;;;;;;5010239;28;20026;-67
2022/07/30 03:54:41;;;;;;;5.10;3.97;;;17.60;81.50;;;;;;5009706;28;20037;-67
2022/07/30 03:57:07;;;;;;;7.78;5.70;;;17.60;81.40;;;;;;5010990;28;20033;-67
2022/07/30 03:59:33;;;;;;;6.40;4.35;;;17.50;81.60;;;;;;5009003;28;20034;-67
2022/07/30 04:02:01;;;;;;;7.20;5.82;;;17.60;81.50;;;;;;5009766;28;20635;-67
2022/07/30 04:04:27;;;;;;;7.18;5.80;;;17.60;81.80;;;;;;5010025;28;20025;-67
2022/07/30 04:06:52;;;;;;;6.47;4.97;;;17.50;81.90;;;;;;5009492;28;20789;-66
2022/07/30 04:09:18;;;;;;;6.43;4.80;;;17.60;81.90;;;;;;5009979;28;20493;-66
2022/07/30 04:11:44;;;;;;;5.20;4.05;;;17.60;82.20;;;;;;5008018;28;20056;-67
2022/07/30 04:14:09;;;;;;;4.53;4.05;;;17.60;81.80;;;;;;5010044;28;20064;-67
2022/07/30 04:16:59;;;;;;;6.05;4.60;;;17.70;81.60;;;;;;5008600;28;20057;-68
2022/07/30 04:19:29;;;;;;;5.32;4.40;;;17.70;81.40;;;;;;5010019;28;20083;-67
2022/07/30 04:21:56;;;;;;;6.20;4.35;;;17.70;81.30;;;;;;5008802;28;20079;-66
2022/07/30 04:24:24;;;;;;;5.90;4.13;;;17.70;81.20;;;;;;5009636;28;20495;-67
2022/07/30 04:26:51;;;;;;;4.85;3.92;;;17.70;81.00;;;;;;5007647;28;20141;-67
2022/07/30 04:29:17;;;;;;;9.23;4.50;;;17.70;80.90;;;;;;5003925;28;20026;-68
2022/07/30 04:31:43;;;;;;;6.80;4.88;;;17.80;80.90;;;;;;5008582;28;20026;-67
2022/07/30 04:34:15;;;;;;;8.48;4.50;;;17.80;80.80;;;;;;5009063;28;20076;-68
2022/07/30 04:36:41;;;;;;;;;;;17.90;81.30;;;;;;4998378;28;20436;-67
2022/07/30 04:39:07;;;;;;;7.65;4.38;;;17.80;80.40;;;;;;5009248;28;19933;-67
2022/07/30 04:41:33;;;;;;;5.00;3.83;;;17.80;80.60;;;;;;5008906;28;20038;-67
2022/07/30 04:43:58;;;;;;;6.68;4.68;;;17.80;80.50;;;;;;5007846;28;20031;-67
2022/07/30 04:46:24;;;;;;;8.68;4.20;;;17.80;80.60;;;;;;5009460;28;20112;-68
2022/07/30 04:48:49;;;;;;;6.28;4.40;;;17.80;80.60;;;;;;5008874;28;20014;-68
2022/07/30 04:51:35;;;;;;;6.70;3.90;;;17.80;80.50;;;;;;5007362;28;20386;-68
2022/07/30 04:54:04;;;;;;;6.30;3.83;;;17.80;80.40;;;;;;5002113;28;20099;-68
2022/07/30 04:56:31;;;;;;;7.00;4.68;;;17.90;80.30;;;;;;5003536;28;20022;-66
2022/07/30 04:58:57;;;;;;;7.00;4.43;;;17.90;80.20;;;;;;5001283;28;20493;-65
2022/07/30 05:01:26;;;;;;;7.63;4.53;;;17.90;80.20;;;;;;5007973;28;20093;-65
2022/07/30 05:03:53;;;;;;;5.10;3.20;;;17.90;80.10;;;;;;5009713;28;20052;-64
2022/07/30 05:06:20;;;;;;;6.22;4.15;;;18.00;80.00;;;;;;5008109;28;20030;-64
2022/07/30 05:08:46;;;;;;;6.30;4.28;;;18.00;79.90;;;;;;5008527;28;20022;-65
2022/07/30 05:11:13;;;;;;;4.63;3.70;;;18.10;79.90;;;;;;5007528;28;20365;-64
2022/07/30 05:13:47;;;;;;;4.88;3.50;;;18.10;79.70;;;;;;4996214;28;20049;-65
2022/07/30 05:16:13;;;;;;;3.95;3.15;;;18.10;79.60;;;;;;5008206;28;20495;-65
2022/07/30 05:18:39;;;;;;;5.47;3.70;;;18.20;79.30;;;;;;5006636;28;20038;-65
2022/07/30 05:21:05;;;;;;;6.63;3.85;;;18.30;79.10;;;;;;5000844;28;20018;-66
2022/07/30 05:23:30;;;;;;;6.05;3.65;;;18.40;79.00;;;;;;5009816;28;20480;-65
2022/07/30 05:25:56;;;;;;;4.10;3.08;;;18.40;78.90;;;;;;5008556;28;20018;-65
2022/07/30 05:28:22;;;;;;;4.97;3.28;;;18.90;78.80;;;;;;5009434;28;20025;-65
2022/07/30 05:30:48;;;;;;;4.28;3.25;;;19.90;76.80;;;;;;5007520;28;20105;-66
2022/07/30 05:33:14;;;;;;;5.53;3.50;;;20.80;74.10;;;;;;5002326;28;20022;-66
2022/07/30 05:35:40;;;;;;;4.68;2.95;;;21.70;71.30;;;;;;5001974;28;20023;-67
2022/07/30 05:38:05;;;;;;;5.10;3.10;;;22.50;68.90;;;;;;5007373;28;20109;-67
2022/07/30 05:40:31;;;;;;;4.22;2.70;;;23.20;66.70;;;;;;5005054;28;20034;-67
2022/07/30 05:42:56;;;;;;;3.58;2.40;;;23.80;64.70;;;;;;5009485;28;20033;-66
2022/07/30 05:45:22;;;;;;;5.65;2.78;;;24.30;63.30;;;;;;5009741;28;20041;-67
2022/07/30 05:47:47;;;;;;;3.70;2.33;;;24.80;61.80;;;;;;5008122;28;20026;-66
2022/07/30 05:50:13;;;;;;;4.88;2.75;;;25.30;60.60;;;;;;5012048;28;20699;-68
2022/07/30 05:52:38;;;;;;;4.93;2.58;;;25.80;59.20;;;;;;5012294;28;20033;-67
2022/07/30 05:55:04;;;;;;;4.07;2.50;;;26.10;58.30;;;;;;5010551;28;20108;-67
2022/07/30 05:57:30;;;;;;;3.70;2.40;;;26.40;57.40;;;;;;5010669;28;20029;-66
2022/07/30 05:59:55;;;;;;;5.03;2.60;;;26.70;56.70;;;;;;5010875;28;20022;-67
2022/07/30 06:02:21;;;;;;;3.80;2.17;;;26.80;56.10;;;;;;5010669;28;20080;-66
2022/07/30 06:04:47;;;;;;;3.42;2.70;;;27.20;55.40;;;;;;5011164;28;20026;-66
2022/07/30 06:07:12;;;;;;;3.97;2.55;;;27.20;54.60;;;;;;5007444;28;20032;-66
2022/07/30 06:09:38;;;;;;;4.05;2.60;;;27.40;54.00;;;;;;5005972;28;20029;-66
2022/07/30 06:12:04;;;;;;;4.68;2.95;;;27.60;53.40;;;;;;5007565;28;20021;-65
2022/07/30 06:14:30;;;;;;;3.97;2.50;;;27.70;52.90;;;;;;5012796;28;20116;-66
2022/07/30 06:16:56;;;;;;;3.13;2.20;;;27.70;52.70;;;;;;5005263;28;20432;-66
2022/07/30 06:19:22;;;;;;;4.07;2.30;;;28.00;52.20;;;;;;5004807;28;20047;-66
2022/07/30 06:21:47;;;;;;;4.03;2.42;;;28.20;51.90;;;;;;5004897;28;20064;-66
2022/07/30 06:24:13;;;;;;;3.40;2.03;;;28.20;51.40;;;;;;5001257;28;20069;-66
2022/07/30 06:26:38;;;;;;;2.38;2.00;;;28.40;51.10;;;;;;5005377;28;20628;-66
2022/07/30 06:29:04;;;;;;;2.75;2.03;;;28.50;50.90;;;;;;5009439;28;20025;-66
2022/07/30 06:31:30;;;;;;;4.30;1.75;;;28.50;50.40;;;;;;5004052;28;20032;-66
2022/07/30 06:33:55;;;;;;;3.55;2.20;;;28.70;50.40;;;;;;5005842;28;20014;-66
2022/07/30 06:36:21;;;;;;;6.25;2.10;;;28.90;50.20;;;;;;5011937;28;20376;-67
2022/07/30 06:38:46;;;;;;;3.45;2.13;;;29.00;50.10;;;;;;5011035;28;20014;-66
2022/07/30 06:41:12;;;;;;;4.05;1.85;;;28.90;50.20;;;;;;5003593;28;20840;-67
2022/07/30 06:43:38;;;;;;;3.70;2.20;;;28.30;51.00;;;;;;5003492;28;20443;-66
2022/07/30 06:46:03;;;;;;;2.67;1.83;;;27.80;51.90;;;;;;5008828;28;20038;-66
2022/07/30 06:48:30;;;;;;;6.82;2.47;;;27.50;53.00;;;;;;5003396;28;20018;-66
2022/07/30 06:50:56;;;;;;;5.65;2.13;;;27.20;53.50;;;;;;5000862;28;20109;-66
2022/07/30 06:53:21;;;;;;;4.18;2.05;;;26.50;54.30;;;;;;5010758;28;20121;-66
2022/07/30 06:55:47;;;;;;;5.60;2.30;;;25.90;55.50;;;;;;5008440;28;20022;-66
2022/07/30 06:58:12;;;;;;;3.50;1.77;;;25.60;56.40;;;;;;5010596;28;20030;-66
2022/07/30 07:00:38;;;;;;;3.78;2.13;;;25.50;57.20;;;;;;5007219;28;20118;-66
2022/07/30 07:03:03;;;;;;;3.97;2.40;;;25.20;57.50;;;;;;5005944;28;20041;-66
2022/07/30 07:05:29;;;;;;;4.57;2.10;;;25.00;57.30;;;;;;5007749;28;20568;-66
2022/07/30 07:07:54;;;;;;;4.68;2.10;;;24.60;57.90;;;;;;5009951;28;20030;-67
2022/07/30 07:10:20;;;;;;;3.92;2.13;;;24.50;58.60;;;;;;5010498;28;20080;-68
2022/07/30 07:12:46;;;;;;;5.30;2.25;;;24.30;58.70;;;;;;5006062;28;20027;-68
2022/07/30 07:15:11;;;;;;;3.75;1.75;;;24.30;58.60;;;;;;5011535;28;20053;-68
2022/07/30 07:17:39;;;;;;;2.55;1.77;;;24.20;58.50;;;;;;5007573;28;20538;-68
2022/07/30 07:20:05;;;;;;;4.60;2.10;;;24.10;58.90;;;;;;5003825;28;20539;-68
2022/07/30 07:22:30;;;;;;;4.32;1.90;;;24.50;58.50;;;;;;5010158;28;20053;-68
2022/07/30 07:24:56;;;;;;;3.22;1.67;;;24.60;58.30;;;;;;5010781;28;20060;-68
2022/07/30 07:27:21;;;;;;;4.22;1.85;;;24.50;58.30;;;;;;5009570;28;20037;-68
2022/07/30 07:29:47;;;;;;;4.07;1.70;;;24.50;58.70;;;;;;5010239;28;20084;-68
2022/07/30 07:32:12;;;;;;;3.15;1.50;;;24.40;58.10;;;;;;5010800;28;20029;-68
2022/07/30 07:34:38;;;;;;;3.58;1.60;;;24.30;57.90;;;;;;5009383;28;20096;-68
2022/07/30 07:37:03;;;;;;;3.05;1.90;;;24.20;57.90;;;;;;5009715;28;20038;-68
2022/07/30 07:39:29;;;;;;;5.18;1.70;;;24.20;57.50;;;;;;5008049;28;20036;-68
2022/07/30 07:41:55;;;;;;;4.15;1.70;;;24.00;57.30;;;;;;5010499;28;20037;-68
2022/07/30 07:44:20;;;;;;;2.90;1.70;;;23.90;57.20;;;;;;5009958;28;20033;-68
2022/07/30 07:46:47;;;;;;;3.63;1.55;;;23.80;57.40;;;;;;5004265;28;20026;-68
2022/07/30 07:49:12;;;;;;;5.70;1.73;;;23.70;57.50;;;;;;5008810;28;20063;-68
2022/07/30 07:51:39;;;;;;;5.22;1.88;;;23.80;57.50;;;;;;5008082;28;20049;-68
2022/07/30 07:54:05;;;;;;;3.72;1.50;;;23.70;57.20;;;;;;5010103;28;20097;-68
2022/07/30 07:56:30;;;;;;;2.42;1.63;;;23.80;57.30;;;;;;5010735;28;20568;-68
2022/07/30 07:58:56;;;;;;;2.83;1.80;;;23.90;57.10;;;;;;5010092;28;20058;-68
2022/07/30 08:01:22;;;;;;;3.35;1.70;;;23.80;56.80;;;;;;5011144;28;20022;-68
2022/07/30 08:03:47;;;;;;;3.38;1.70;;;23.80;56.60;;;;;;5007614;28;20040;-68
2022/07/30 08:06:13;;;;;;;4.40;1.75;;;23.90;56.60;;;;;;5011207;28;20392;-68
2022/07/30 08:08:38;;;;;;;3.15;1.90;;;24.10;56.30;;;;;;5009470;28;20014;-66
2022/07/30 08:11:05;;;;;;;4.30;1.83;;;24.20;56.10;;;;;;5008331;28;20022;-66
2022/07/30 08:13:31;;;;;;;3.17;1.50;;;24.10;55.90;;;;;;5004449;28;20026;-66
2022/07/30 08:15:58;;;;;;;3.58;1.77;;;24.20;56.00;;;;;;5003617;28;20526;-68
2022/07/30 08:18:24;;;;;;;2.22;1.40;;;24.30;56.00;;;;;;5007710;28;20091;-69
2022/07/30 08:20:50;;;;;;;2.72;1.60;;;24.50;56.00;;;;;;5008808;28;20026;-66
2022/07/30 08:23:17;;;;;;;2.65;1.50;;;24.50;55.40;;;;;;5004621;28;20061;-66
2022/07/30 08:25:43;;;;;;;2.33;1.27;;;24.50;54.80;;;;;;5005235;28;20049;-66
2022/07/30 08:28:09;;;;;;;2.25;1.38;;;24.50;54.50;;;;;;5008682;28;20038;-66
2022/07/30 08:30:34;;;;;;;2.28;1.50;;;24.60;54.30;;;;;;5008061;28;20102;-66
2022/07/30 08:33:00;;;;;;;3.63;1.60;;;24.60;54.20;;;;;;5007332;28;20091;-67
2022/07/30 08:35:25;;;;;;;2.60;1.33;;;24.60;52.80;;;;;;5006441;28;20030;-67
2022/07/30 08:37:51;;;;;;;3.30;1.63;;;24.60;52.80;;;;;;5005881;28;20068;-67
2022/07/30 08:40:19;;;;;;;3.80;1.73;;;24.70;53.20;;;;;;5005990;28;20057;-67
2022/07/30 08:42:46;;;;;;;3.33;1.77;;;24.70;53.50;;;;;;5008065;28;20706;-66
2022/07/30 08:45:12;;;;;;;2.80;1.50;;;24.70;53.60;;;;;;5006766;28;20057;-65
2022/07/30 08:47:40;;;;;;;2.00;1.38;;;24.80;53.60;;;;;;5007502;28;20064;-66
2022/07/30 08:50:07;;;;;;;2.47;1.33;;;24.80;53.40;;;;;;5006176;28;20026;-66
2022/07/30 08:52:35;;;;;;;1.80;1.48;;;25.00;53.20;;;;;;5008253;28;20029;-67
2022/07/30 08:55:03;;;;;;;2.42;1.20;;;25.00;52.70;;;;;;5011366;28;20109;-66
2022/07/30 08:57:29;;;;;;;2.42;1.42;;;25.10;52.40;;;;;;5006863;28;20025;-66
2022/07/30 08:59:58;;;;;;;2.60;1.65;;;25.10;51.80;;;;;;5007102;28;20542;-66
2022/07/30 09:02:25;;;;;;;3.08;1.58;;;25.10;51.70;;;;;;5003003;28;20038;-66
2022/07/30 09:04:51;;;;;;;3.13;1.35;;;25.00;51.40;;;;;;5001020;28;20030;-66
2022/07/30 09:07:16;;;;;;;4.18;1.58;;;25.10;51.70;;;;;;5004343;28;20037;-66
2022/07/30 09:09:42;;;;;;;3.35;1.50;;;25.10;51.70;;;;;;5003456;28;20025;-66
2022/07/30 09:12:31;;;;;;;3.05;1.73;;;25.20;51.60;;;;;;5005246;28;20022;-66
2022/07/30 09:15:01;;;;;;;3.30;1.45;;;25.30;51.20;;;;;;5003707;28;20029;-66
2022/07/30 09:17:27;;;;;;;2.40;1.27;;;25.40;50.60;;;;;;5011512;28;20075;-66
2022/07/30 09:20:05;;;;;;;2.13;1.05;;;25.40;50.30;;;;;;5010488;28;20110;-65
2022/07/30 09:22:54;;;;;;;4.85;1.30;;;25.50;49.80;;;;;;5009391;28;20481;-66
2022/07/30 09:25:41;;;;;;;2.55;1.48;;;25.50;49.00;;;;;;5010413;28;20056;-65
2022/07/30 09:28:11;;;;;;;3.03;1.50;;;25.50;48.10;;;;;;5011418;28;20115;-65
2022/07/30 09:30:52;;;;;;;3.97;1.40;;;25.20;48.10;;;;;;5009485;28;20544;-66
2022/07/30 09:33:39;;;;;;;2.95;1.50;;;25.20;48.90;;;;;;5008178;28;20039;-65
2022/07/30 09:36:10;;;;;;;5.05;1.50;;;25.20;49.20;;;;;;5006190;28;20030;-65
2022/07/30 09:38:43;;;;;;;4.20;1.60;;;25.30;49.40;;;;;;5009542;28;20033;-65
2022/07/30 09:41:09;;;;;;;3.35;1.45;;;25.30;48.50;;;;;;5009386;28;20104;-66
2022/07/30 09:43:49;;;;;;;2.53;1.40;;;25.10;48.30;;;;;;5015066;28;20026;-66
2022/07/30 09:46:15;;;;;;;3.45;1.33;;;25.20;48.20;;;;;;5010848;28;20022;-65
2022/07/30 09:48:41;;;;;;;2.08;1.17;;;25.30;48.30;;;;;;5011459;28;20031;-65
2022/07/30 09:51:07;;;;;;;2.00;1.20;;;25.50;48.30;;;;;;5011607;28;20533;-66
2022/07/30 09:53:34;;;;;;;2.15;0.95;;;25.60;48.10;;;;;;5010397;28;20026;-65
2022/07/30 09:56:00;;;;;;;2.45;1.30;;;25.70;48.40;;;;;;5010724;28;20042;-66
2022/07/30 09:58:41;;;;;;;2.65;1.38;;;25.80;48.20;;;;;;5010929;28;20507;-65
2022/07/30 10:01:08;;;;;;;2.80;1.00;;;25.80;47.80;;;;;;5010337;28;20030;-65
2022/07/30 10:03:41;;;;;;;3.28;1.35;;;25.70;47.60;;;;;;5010917;28;20400;-65
2022/07/30 10:06:07;;;;;;;1.55;0.90;;;25.80;46.70;;;;;;5011029;28;20037;-65
2022/07/30 10:08:50;;;;;;;1.77;1.15;;;25.80;46.60;;;;;;5011327;28;20117;-65
2022/07/30 10:11:24;;;;;;;2.28;1.45;;;26.00;46.60;;;;;;5009535;28;20018;-66
2022/07/30 10:13:53;;;;;;;4.22;1.50;;;25.90;46.60;;;;;;5011469;28;20052;-65
2022/07/30 10:16:19;;;;;;;3.05;1.30;;;25.90;46.50;;;;;;5010757;28;20045;-65
2022/07/30 10:18:45;;;;;;;2.28;1.15;;;26.00;46.60;;;;;;5012078;28;20072;-65
2022/07/30 10:21:12;;;;;;;2.63;1.10;;;26.00;46.50;;;;;;5010631;28;20018;-65
2022/07/30 10:23:39;;;;;;;3.28;1.48;;;26.00;45.60;;;;;;5010171;28;20396;-65
2022/07/30 10:26:06;;;;;;;2.08;1.10;;;26.00;45.30;;;;;;5008609;28;20018;-65
2022/07/30 10:28:32;;;;;;;3.90;1.00;;;26.00;45.60;;;;;;5011409;28;20636;-65
2022/07/30 10:30:58;;;;;;;2.20;1.20;;;26.10;45.60;;;;;;5007753;28;20524;-65
2022/07/30 10:33:27;;;;;;;1.35;0.90;;;26.20;45.40;;;;;;5009772;28;20026;-65
2022/07/30 10:35:53;;;;;;;1.65;1.10;;;26.20;45.00;;;;;;5009060;28;20108;-66
2022/07/30 10:38:26;;;;;;;1.60;0.90;;;26.20;43.60;;;;;;5007780;28;20910;-66
2022/07/30 10:41:07;;;;;;;1.73;1.05;;;26.20;43.60;;;;;;5009931;28;20037;-66
2022/07/30 10:44:01;;;;;;;1.27;1.13;;;26.20;43.60;;;;;;5005877;28;20069;-66
2022/07/30 10:46:56;;;;;;;1.77;1.17;;;26.40;43.70;;;;;;5008718;28;20037;-66
2022/07/30 10:49:21;;;;;;;2.00;1.10;;;26.40;43.50;;;;;;5006108;28;20038;-66
2022/07/30 10:51:50;;;;;;;1.90;1.02;;;26.40;43.60;;;;;;5009839;28;20021;-66
2022/07/30 10:54:34;;;;;;;1.65;1.23;;;26.40;43.80;;;;;;5009609;28;20026;-66
2022/07/30 10:57:03;;;;;;;3.03;1.23;;;26.40;43.70;;;;;;5009883;28;20440;-66
2022/07/30 10:59:28;;;;;;;3.83;1.20;;;26.40;43.70;;;;;;5007194;28;20087;-66
2022/07/30 11:01:57;;;;;;;1.88;1.15;;;26.50;44.00;;;;;;5008609;28;20030;-66
2022/07/30 11:04:25;;;;;;;1.92;1.05;;;26.60;43.70;;;;;;5009762;28;20030;-66
2022/07/30 11:06:51;;;;;;;2.97;1.10;;;26.70;43.30;;;;;;5007997;28;20032;-66
2022/07/30 11:09:39;;;;;;;2.20;1.00;;;26.80;42.60;;;;;;5009532;28;20037;-66
2022/07/30 11:12:06;;;;;;;2.65;1.08;;;26.80;42.40;;;;;;5006287;28;20025;-66
2022/07/30 11:14:46;;;;;;;2.33;0.90;;;26.70;42.00;;;;;;5009879;28;20504;-66
2022/07/30 11:17:21;;;;;;;1.80;1.10;;;26.70;42.40;;;;;;5009181;28;20571;-66
2022/07/30 11:20:13;;;;;;;2.42;1.25;;;26.80;42.60;;;;;;5008183;28;20400;-66
2022/07/30 11:22:40;;;;;;;;;;;26.90;42.40;;;;;;5006148;28;20050;-66
2022/07/30 11:25:07;;;;;;;2.38;1.20;;;26.80;42.30;;;;;;5009503;28;19915;-66
2022/07/30 11:27:47;;;;;;;2.50;1.20;;;26.80;42.90;;;;;;5007538;28;20041;-66
2022/07/30 11:30:15;;;;;;;2.45;1.10;;;26.90;42.50;;;;;;5004459;28;20057;-66
2022/07/30 11:32:52;;;;;;;1.20;1.00;;;27.10;42.70;;;;;;5004127;28;20030;-66
2022/07/30 11:35:29;;;;;;;1.70;0.98;;;27.20;42.70;;;;;;5022591;28;20105;-66
2022/07/30 11:38:18;;;;;;;1.75;1.20;;;27.30;42.50;;;;;;5007416;28;20080;-66
2022/07/30 11:40:49;;;;;;;1.80;1.00;;;27.30;42.60;;;;;;5007117;28;20022;-66
2022/07/30 11:43:15;;;;;;;;;;;27.40;42.30;;;;;;5008394;28;20034;-66
2022/07/30 11:45:42;;;;;;;1.83;0.98;;;27.40;42.30;;;;;;5016372;28;19909;-66
2022/07/30 11:48:13;;;;;;;2.40;1.00;;;27.50;42.30;;;;;;5007401;28;20133;-66
2022/07/30 11:50:40;;;;;;;3.13;1.25;;;27.60;42.50;;;;;;5007750;28;20033;-66
2022/07/30 11:53:13;;;;;;;1.13;0.80;;;27.60;42.30;;;;;;5008166;28;20046;-66
2022/07/30 11:55:41;;;;;;;1.73;1.10;;;27.70;42.40;;;;;;5006892;28;20029;-66
2022/07/30 11:58:31;;;;;;;1.83;0.90;;;27.80;42.30;;;;;;5007755;28;20018;-66
2022/07/30 12:01:00;;;;;;;2.90;1.00;;;27.80;42.30;;;;;;5006500;28;20107;-66
2022/07/30 12:03:27;;;;;;;3.60;1.30;;;27.90;42.60;;;;;;5008565;28;20022;-66
2022/07/30 12:05:53;;;;;;;4.50;1.40;;;27.90;42.20;;;;;;5006305;28;20452;-66
2022/07/30 12:08:20;;;;;;;2.55;1.17;;;28.00;42.20;;;;;;5008088;28;20029;-66
2022/07/30 12:10:58;;;;;;;1.52;1.08;;;28.00;42.30;;;;;;5006065;28;20515;-66
2022/07/30 12:13:24;;;;;;;4.55;1.30;;;28.10;42.40;;;;;;5004589;28;20113;-66
2022/07/30 12:15:50;;;;;;;3.28;1.20;;;28.10;42.00;;;;;;5007876;28;20033;-66
2022/07/30 12:18:28;;;;;;;3.22;1.08;;;28.30;42.10;;;;;;5008368;28;20025;-67
2022/07/30 12:20:59;;;;;;;1.27;1.00;;;28.60;42.10;;;;;;5007503;28;20030;-66
2022/07/30 12:23:26;;;;;;;2.00;1.20;;;28.90;42.00;;;;;;5006991;28;20034;-66
2022/07/30 12:25:52;;;;;;;2.25;1.05;;;29.10;41.50;;;;;;5006097;28;20036;-66
2022/07/30 12:28:23;;;;;;;1.75;1.15;;;29.20;41.20;;;;;;5004012;28;20030;-66
2022/07/30 12:30:49;;;;;;;2.28;1.35;;;29.40;41.10;;;;;;5008587;28;20022;-67
2022/07/30 12:33:15;;;;;;;2.13;1.20;;;29.50;41.00;;;;;;5007900;28;20020;-66
2022/07/30 12:36:01;;;;;;;2.88;1.35;;;29.50;40.70;;;;;;5006933;28;20104;-66
2022/07/30 12:38:27;;;;;;;3.70;1.45;;;29.80;40.90;;;;;;5005859;28;20054;-66
2022/07/30 12:41:03;;;;;;;1.73;0.98;;;30.00;40.40;;;;;;5006708;28;20038;-66
2022/07/30 12:43:50;;;;;;;3.25;1.10;;;30.20;40.40;;;;;;5008416;28;20026;-66
2022/07/30 12:46:25;;;;;;;3.42;1.40;;;30.30;40.10;;;;;;5004835;28;20026;-67
2022/07/30 12:49:02;;;;;;;3.17;1.13;;;30.10;39.80;;;;;;5007876;28;20053;-66
2022/07/30 12:51:33;;;;;;;2.35;1.10;;;29.80;40.10;;;;;;5006683;28;21238;-64
2022/07/30 12:54:00;;;;;;;3.72;1.00;;;29.60;40.40;;;;;;5012548;28;20025;-64
2022/07/30 12:56:28;;;;;;;1.50;1.10;;;29.50;40.60;;;;;;5013454;28;20026;-66